Time;durP1;ratioP1;P1;durP2;ratioP2;P2;SDS_P1;SDS_P2;PMS_P1;PMS_P2;Temp;Humidity;BMP_temperature;BMP_pressure;BME280_temperature;BME280_humidity;BME280_pressure;Samples;Min_cycle;Max_cycle;Signal;HPM_P1;HPM_P2
2021/03/19 00:03:02;;;;;;;21.60;3.80;;;;;3.80;101436.00;;;;10384491;28;20198;-77
2021/03/19 00:08:05;;;;;;;12.47;3.37;;;;;3.60;101432.00;;;;10383775;28;20298;-77
2021/03/19 00:13:09;;;;;;;8.80;3.67;;;;;3.50;101429.00;;;;10399457;28;20272;-77
2021/03/19 00:18:11;;;;;;;12.13;3.47;;;;;3.40;101440.00;;;;10383005;28;20191;-77
2021/03/19 00:23:14;;;;;;;8.87;4.13;;;;;3.30;101433.00;;;;10398989;28;20282;-77
2021/03/19 00:28:15;;;;;;;9.10;3.20;;;;;3.20;101445.00;;;;10399070;28;20526;-77
2021/03/19 00:33:17;;;;;;;10.83;3.73;;;;;3.40;101443.00;;;;10382469;28;20195;-77
2021/03/19 00:38:18;;;;;;;11.83;3.80;;;;;3.60;101447.00;;;;10416645;28;20194;-77
2021/03/19 00:43:20;;;;;;;11.60;3.93;;;;;3.80;101470.00;;;;10398922;28;20713;-77
2021/03/19 00:48:22;;;;;;;14.17;3.70;;;;;3.80;101457.00;;;;10366017;28;20260;-76
2021/03/19 00:53:25;;;;;;;12.90;3.40;;;;;3.90;101467.00;;;;10417236;28;20665;-77
2021/03/19 00:58:28;;;;;;;11.23;3.90;;;;;3.90;101473.00;;;;10398084;28;20202;-77
2021/03/19 01:03:31;;;;;;;10.70;2.97;;;;;4.00;101477.00;;;;10340720;28;20604;-77
2021/03/19 01:08:35;;;;;;;11.30;3.80;;;;;3.90;101480.00;;;;10357459;28;20184;-77
2021/03/19 01:13:36;;;;;;;13.83;3.33;;;;;3.70;101491.00;;;;10385018;28;20608;-77
2021/03/19 01:18:37;;;;;;;19.73;3.53;;;;;3.60;101493.00;;;;10348566;28;20229;-77
2021/03/19 01:23:48;;;;;;;14.90;3.67;;;;;3.40;101497.00;;;;10365417;28;20195;-77
2021/03/19 01:28:50;;;;;;;12.73;3.93;;;;;3.10;101494.00;;;;10348564;28;20198;-77
2021/03/19 01:33:58;;;;;;;11.37;3.77;;;;;3.00;101503.00;;;;10396745;28;20186;-77
2021/03/19 01:38:59;;;;;;;4.30;3.00;;;;;2.90;101499.00;;;;10364579;28;20210;-77
2021/03/19 01:44:13;;;;;;;11.07;4.60;;;;;2.90;101505.00;;;;10396500;28;20214;-77
2021/03/19 01:49:52;;;;;;;14.77;3.70;;;;;2.80;101512.00;;;;10364123;28;20198;-77
2021/03/19 01:55:31;;;;;;;9.83;3.83;;;;;2.70;101500.00;;;;10355568;28;20724;-77
2021/03/19 02:01:12;;;;;;;12.57;3.93;;;;;2.60;101505.00;;;;10340459;28;20670;-77
2021/03/19 02:07:12;;;;;;;10.63;4.17;;;;;2.50;101508.00;;;;10356118;28;20610;-77
2021/03/19 02:12:50;;;;;;;12.90;4.33;;;;;2.40;101514.00;;;;10176602;29;20202;-77
2021/03/19 02:18:30;;;;;;;12.07;4.80;;;;;2.50;101519.00;;;;10339845;28;20196;-77
2021/03/19 02:24:09;;;;;;;9.17;4.10;;;;;2.50;101536.00;;;;10360016;28;20238;-77
2021/03/19 02:29:49;;;;;;;16.37;4.83;;;;;2.50;101524.00;;;;10387300;28;20344;-77
2021/03/19 02:35:19;;;;;;;11.47;4.97;;;;;2.40;101537.00;;;;10403542;28;20206;-77
2021/03/19 02:40:22;;;;;;;8.03;4.90;;;;;2.50;101554.00;;;;10403135;28;20186;-76
2021/03/19 02:45:23;;;;;;;10.37;5.00;;;;;2.60;101539.00;;;;10384846;28;20218;-77
2021/03/19 02:50:25;;;;;;;9.23;4.97;;;;;2.70;101547.00;;;;10354573;28;20198;-77
2021/03/19 02:55:27;;;;;;;14.10;5.50;;;;;2.60;101546.00;;;;10386276;28;20290;-77
2021/03/19 03:00:29;;;;;;;9.60;4.70;;;;;2.50;101558.00;;;;10402266;28;20194;-77
2021/03/19 03:05:31;;;;;;;10.37;5.67;;;;;2.30;101561.00;;;;10386733;28;20206;-77
2021/03/19 03:10:35;;;;;;;14.30;5.87;;;;;2.20;101550.00;;;;10386736;28;20195;-77
2021/03/19 03:15:41;;;;;;;16.80;6.50;;;;;2.10;101563.00;;;;10385865;28;20218;-76
2021/03/19 03:20:50;;;;;;;11.67;6.13;;;;;2.00;101569.00;;;;10385259;28;20614;-76
2021/03/19 03:25:52;;;;;;;10.63;6.93;;;;;1.90;101576.00;;;;10368613;28;20203;-76
2021/03/19 03:30:56;;;;;;;15.47;7.23;;;;;1.80;101574.00;;;;10384900;28;20206;-76
2021/03/19 03:35:58;;;;;;;11.00;6.60;;;;;1.70;101579.00;;;;10367404;28;20241;-76
2021/03/19 03:41:07;;;;;;;12.50;7.40;;;;;1.70;101591.00;;;;10385484;28;20202;-76
2021/03/19 03:46:12;;;;;;;14.43;7.60;;;;;1.70;101595.00;;;;10368211;28;20210;-76
2021/03/19 03:51:15;;;;;;;14.07;7.60;;;;;1.70;101601.00;;;;10400712;28;20667;-76
2021/03/19 03:56:16;;;;;;;12.97;7.77;;;;;1.60;101597.00;;;;10400401;28;20288;-76
2021/03/19 04:01:18;;;;;;;18.40;8.00;;;;;1.60;101608.00;;;;10383705;28;20663;-76
2021/03/19 04:06:20;;;;;;;18.70;9.90;;;;;1.60;101604.00;;;;10384209;28;20207;-76
2021/03/19 04:11:24;;;;;;;13.20;8.93;;;;;1.60;101601.00;;;;10399630;28;20191;-76
2021/03/19 04:16:27;;;;;;;15.03;8.07;;;;;1.50;101607.00;;;;10382997;28;20206;-76
2021/03/19 04:21:28;;;;;;;16.80;9.03;;;;;1.40;101616.00;;;;10383140;28;20191;-76
2021/03/19 04:26:34;;;;;;;17.50;8.37;;;;;1.40;101623.00;;;;10399172;28;20555;-76
2021/03/19 04:31:35;;;;;;;12.03;8.33;;;;;1.30;101618.00;;;;10399611;28;20191;-76
2021/03/19 04:36:42;;;;;;;20.00;10.17;;;;;1.30;101640.00;;;;10366226;28;20191;-76
2021/03/19 04:41:46;;;;;;;13.23;8.83;;;;;1.20;101641.00;;;;10365907;28;20237;-76
2021/03/19 04:46:48;;;;;;;17.67;10.20;;;;;1.20;101644.00;;;;10365627;28;20211;-76
2021/03/19 04:51:50;;;;;;;17.33;11.10;;;;;1.10;101651.00;;;;10381779;28;20278;-76
2021/03/19 04:56:51;;;;;;;16.67;10.07;;;;;1.00;101673.00;;;;10398520;28;20211;-76
2021/03/19 05:01:55;;;;;;;16.90;11.63;;;;;1.00;101683.00;;;;10365455;28;20245;-76
2021/03/19 05:07:04;;;;;;;21.43;11.53;;;;;0.90;101691.00;;;;10381335;28;20784;-76
2021/03/19 05:12:06;;;;;;;16.20;11.90;;;;;0.90;101705.00;;;;10365242;28;20205;-76
2021/03/19 05:17:07;;;;;;;18.40;10.40;;;;;0.90;101704.00;;;;10356500;28;20200;-76
2021/03/19 05:22:08;;;;;;;18.63;11.07;;;;;0.80;101716.00;;;;10339771;28;20195;-76
2021/03/19 05:27:11;;;;;;;17.53;11.67;;;;;0.70;101709.00;;;;10375182;28;20269;-76
2021/03/19 05:32:13;;;;;;;23.37;12.70;;;;;0.70;101703.00;;;;10380716;28;20598;-76
2021/03/19 05:37:15;;;;;;;22.00;14.37;;;;;0.60;101705.00;;;;10414153;28;20222;-76
2021/03/19 05:42:28;;;;;;;23.70;15.27;;;;;0.60;101708.00;;;;10396917;28;20653;-76
2021/03/19 05:47:30;;;;;;;25.53;15.60;;;;;0.60;101725.00;;;;10414003;28;20293;-76
2021/03/19 05:52:34;;;;;;;33.33;15.87;;;;;0.60;101709.00;;;;10380281;28;20186;-76
2021/03/19 05:57:37;;;;;;;24.13;15.03;;;;;0.70;101711.00;;;;10399468;28;20233;-76
2021/03/19 06:02:39;;;;;;;24.13;15.93;;;;;0.70;101725.00;;;;10372218;28;20260;-76
2021/03/19 06:07:52;;;;;;;26.23;15.13;;;;;0.80;101744.00;;;;10372059;28;20261;-76
2021/03/19 06:13:14;;;;;;;27.87;16.07;;;;;0.80;101753.00;;;;10404275;28;20223;-76
2021/03/19 06:18:21;;;;;;;26.77;15.67;;;;;1.00;101757.00;;;;10405120;28;20198;-76
2021/03/19 06:23:23;;;;;;;23.60;15.17;;;;;1.10;101778.00;;;;10403618;28;20650;-76
2021/03/19 06:28:29;;;;;;;24.17;16.33;;;;;1.40;101777.00;;;;10387323;28;20215;-76
2021/03/19 06:33:30;;;;;;;25.63;15.67;;;;;1.70;101785.00;;;;10403256;28;20202;-76
2021/03/19 06:38:42;;;;;;;18.60;13.13;;;;;1.90;101790.00;;;;10403764;28;20328;-76
2021/03/19 06:43:44;;;;;;;15.80;12.40;;;;;2.10;101803.00;;;;10403825;28;20194;-76
2021/03/19 06:49:00;;;;;;;18.13;12.03;;;;;2.30;101801.00;;;;10402887;28;20689;-76
2021/03/19 06:54:07;;;;;;;16.93;11.17;;;;;2.50;101816.00;;;;10420662;28;20205;-76
2021/03/19 06:59:22;;;;;;;18.60;11.90;;;;;2.80;101813.00;;;;10386280;28;20229;-76
2021/03/19 07:04:50;;;;;;;18.27;11.63;;;;;3.20;101814.00;;;;10361302;28;20231;-76
2021/03/19 07:10:16;;;;;;;14.60;8.90;;;;;3.70;101827.00;;;;10358578;28;20207;-76
2021/03/19 07:15:23;;;;;;;13.57;8.63;;;;;4.20;101839.00;;;;10358024;28;20220;-76
2021/03/19 07:20:36;;;;;;;10.43;7.30;;;;;4.40;101835.00;;;;10385791;28;20202;-76
2021/03/19 07:25:53;;;;;;;12.07;8.23;;;;;4.60;101847.00;;;;10344580;28;20302;-76
2021/03/19 07:31:22;;;;;;;10.07;7.77;;;;;4.90;101850.00;;;;10360453;28;20214;-76
2021/03/19 07:36:43;;;;;;;11.07;7.83;;;;;5.10;101850.00;;;;10376729;28;20678;-76
2021/03/19 07:41:47;;;;;;;8.43;7.27;;;;;5.40;101863.00;;;;10364438;28;20260;-76
2021/03/19 07:47:23;;;;;;;7.67;5.80;;;;;5.60;101876.00;;;;10359989;28;20207;-76
2021/03/19 07:52:36;;;;;;;9.77;7.20;;;;;5.70;101874.00;;;;10359507;28;20270;-76
2021/03/19 07:57:46;;;;;;;7.33;6.03;;;;;5.80;101877.00;;;;10401117;28;20268;-76
2021/03/19 08:03:05;;;;;;;10.33;6.13;;;;;6.10;101891.00;;;;10367731;28;20198;-76
2021/03/19 08:08:17;;;;;;;7.37;5.97;;;;;6.10;101892.00;;;;10417734;28;20195;-76
2021/03/19 08:13:46;;;;;;;7.77;5.70;;;;;6.30;101894.00;;;;10351020;28;20215;-76
2021/03/19 08:19:13;;;;;;;8.63;5.73;;;;;6.70;101896.00;;;;10367153;28;20654;-76
2021/03/19 08:24:46;;;;;;;6.70;6.00;;;;;7.20;101900.00;;;;10375349;28;20245;-76
2021/03/19 08:30:14;;;;;;;6.80;4.70;;;;;7.40;101913.00;;;;10376130;28;20199;-76
2021/03/19 08:35:18;;;;;;;8.97;5.00;;;;;7.70;101895.00;;;;10326194;28;20582;-76
2021/03/19 08:40:43;;;;;;;5.60;3.97;;;;;8.10;101901.00;;;;10325566;28;20210;-76
2021/03/19 08:45:44;;;;;;;4.97;3.97;;;;;8.30;101893.00;;;;10357538;28;20219;-76
2021/03/19 08:50:49;;;;;;;4.90;4.00;;;;;8.60;101888.00;;;;10325814;28;20250;-76
2021/03/19 08:56:11;;;;;;;4.97;3.63;;;;;9.00;101892.00;;;;10357554;28;20187;-76
2021/03/19 09:01:33;;;;;;;5.80;3.80;;;;;9.30;101888.00;;;;10369621;28;20260;-76
2021/03/19 09:06:35;;;;;;;6.53;3.80;;;;;9.30;101897.00;;;;10415066;28;20269;-77
2021/03/19 09:11:36;;;;;;;5.57;3.37;;;;;9.10;101904.00;;;;10373791;28;20254;-76
2021/03/19 09:16:57;;;;;;;5.00;3.43;;;;;9.40;101891.00;;;;10341440;28;20969;-77
2021/03/19 09:22:30;;;;;;;5.43;3.60;;;;;9.70;101904.00;;;;10386747;28;20195;-77
2021/03/19 09:27:32;;;;;;;5.97;3.43;;;;;9.30;101911.00;;;;10396810;28;20288;-77
2021/03/19 09:32:42;;;;;;;6.53;3.40;;;;;9.10;101913.00;;;;10364030;28;20202;-76
2021/03/19 09:37:47;;;;;;;3.57;2.43;;;;;8.70;101908.00;;;;10374655;28;20569;-76
2021/03/19 09:42:51;;;;;;;3.63;2.63;;;;;9.20;101928.00;;;;10388349;28;20221;-77
2021/03/19 09:48:10;;;;;;;2.20;2.00;;;;;10.00;101941.00;;;;10414337;28;20697;-77
2021/03/19 09:53:15;;;;;;;4.83;2.73;;;;;9.90;101926.00;;;;10397332;28;20281;-77
2021/03/19 09:58:31;;;;;;;3.23;2.00;;;;;10.10;101931.00;;;;10380389;28;20549;-77
2021/03/19 10:03:43;;;;;;;4.50;2.03;;;;;10.10;101934.00;;;;10380360;28;20683;-77
2021/03/19 10:08:45;;;;;;;2.47;2.00;;;;;10.40;101935.00;;;;10361479;28;20266;-77
2021/03/19 10:13:46;;;;;;;2.40;1.53;;;;;10.70;101937.00;;;;10339709;28;20246;-77
2021/03/19 10:18:49;;;;;;;2.40;1.70;;;;;10.90;101939.00;;;;10380317;28;20199;-77
2021/03/19 10:23:57;;;;;;;1.90;1.70;;;;;11.20;101934.00;;;;10395323;28;20191;-76
2021/03/19 10:29:10;;;;;;;3.67;1.90;;;;;11.20;101950.00;;;;10359174;28;20257;-77
2021/03/19 10:34:36;;;;;;;2.83;1.77;;;;;11.40;101953.00;;;;10379987;28;20202;-77
2021/03/19 10:39:56;;;;;;;2.03;1.53;;;;;11.40;101958.00;;;;10380116;28;20230;-77
2021/03/19 10:45:15;;;;;;;2.80;2.20;;;;;11.50;101966.00;;;;10383557;28;20214;-77
2021/03/19 10:50:25;;;;;;;4.00;2.13;;;;;11.60;101971.00;;;;10391056;28;20241;-77
2021/03/19 10:55:31;;;;;;;2.77;2.07;;;;;11.90;101968.00;;;;10380910;28;20245;-77
2021/03/19 11:00:38;;;;;;;3.17;2.40;;;;;11.90;101971.00;;;;10378917;28;20203;-77
2021/03/19 11:05:58;;;;;;;2.73;2.20;;;;;11.90;101977.00;;;;10375808;28;20276;-76
2021/03/19 11:11:01;;;;;;;3.97;2.10;;;;;12.10;101983.00;;;;10369789;28;20194;-76
2021/03/19 11:16:06;;;;;;;3.10;2.00;;;;;12.30;101979.00;;;;10369978;28;20225;-75
2021/03/19 11:21:08;;;;;;;2.43;2.23;;;;;12.00;101989.00;;;;10402393;28;20199;-75
2021/03/19 11:26:28;;;;;;;4.23;2.30;;;;;12.00;101987.00;;;;10385317;28;20570;-75
2021/03/19 11:31:30;;;;;;;2.77;2.17;;;;;12.10;102002.00;;;;10376571;28;20209;-75
2021/03/19 11:37:14;;;;;;;2.73;2.47;;;;;12.10;102001.00;;;;10328054;28;20230;-75
2021/03/19 11:42:17;;;;;;;6.17;2.33;;;;;12.40;102009.00;;;;10327083;28;20616;-75
2021/03/19 11:47:26;;;;;;;3.10;2.30;;;;;12.30;102008.00;;;;10414501;28;20677;-75
2021/03/19 11:52:27;;;;;;;3.80;2.33;;;;;12.40;101999.00;;;;10379920;28;20245;-75
2021/03/19 11:57:30;;;;;;;3.23;2.37;;;;;12.50;102013.00;;;;10365172;28;20194;-75
2021/03/19 12:02:36;;;;;;;4.20;2.30;;;;;12.60;102013.00;;;;10358818;28;20237;-75
2021/03/19 12:07:39;;;;;;;2.40;2.03;;;;;12.60;102001.00;;;;10364446;28;20214;-75
2021/03/19 12:12:41;;;;;;;3.43;2.17;;;;;12.60;102008.00;;;;10397481;28;20253;-75
2021/03/19 12:17:44;;;;;;;2.60;2.20;;;;;12.90;102003.00;;;;10377503;28;20285;-75
2021/03/19 12:22:46;;;;;;;3.63;2.30;;;;;12.80;102024.00;;;;10409374;28;20217;-75
2021/03/19 12:27:48;;;;;;;3.53;2.30;;;;;13.00;102013.00;;;;10357587;28;20223;-75
2021/03/19 12:32:50;;;;;;;2.30;2.10;;;;;12.90;102010.00;;;;10375369;28;20668;-75
2021/03/19 12:37:52;;;;;;;2.37;2.17;;;;;13.10;102012.00;;;;10401846;28;20195;-74
2021/03/19 12:42:54;;;;;;;2.47;2.27;;;;;13.50;102004.00;;;;10346906;28;20206;-75
2021/03/19 12:47:56;;;;;;;2.20;2.00;;;;;13.40;102010.00;;;;10398522;28;20257;-74
2021/03/19 12:52:59;;;;;;;3.03;1.80;;;;;13.30;102007.00;;;;10398056;28;20198;-75
2021/03/19 12:58:03;;;;;;;2.43;1.90;;;;;13.30;102010.00;;;;10410882;28;20198;-75
2021/03/19 13:03:05;;;;;;;2.50;1.90;;;;;13.60;101997.00;;;;10454375;28;20202;-75
2021/03/19 13:08:06;;;;;;;4.97;2.60;;;;;13.90;101985.00;;;;10402502;28;20215;-75
2021/03/19 13:13:09;;;;;;;2.37;2.10;;;;;13.90;101990.00;;;;10404926;28;20237;-75
2021/03/19 13:18:11;;;;;;;2.20;1.73;;;;;13.70;102001.00;;;;10392089;28;20194;-75
2021/03/19 13:23:13;;;;;;;2.50;1.60;;;;;13.30;101994.00;;;;10429823;28;20195;-75
2021/03/19 13:28:16;;;;;;;2.13;1.70;;;;;13.50;102000.00;;;;10394784;28;20211;-74
2021/03/19 13:33:32;;;;;;;2.93;1.77;;;;;13.70;101980.00;;;;10401142;28;20921;-74
2021/03/19 13:38:34;;;;;;;1.50;1.40;;;;;13.10;101987.00;;;;10385584;28;20206;-76
2021/03/19 13:43:39;;;;;;;2.07;1.43;;;;;13.60;101987.00;;;;10382696;28;20198;-75
2021/03/19 13:48:41;;;;;;;2.77;2.07;;;;;14.00;101993.00;;;;10380654;28;20218;-75
2021/03/19 13:53:43;;;;;;;2.30;2.10;;;;;14.30;101987.00;;;;10383837;28;20199;-75
2021/03/19 13:58:45;;;;;;;2.37;1.50;;;;;14.50;101986.00;;;;10407614;28;20191;-76
2021/03/19 14:03:46;;;;;;;2.67;2.00;;;;;15.10;101983.00;;;;10390613;28;20302;-76
2021/03/19 14:08:48;;;;;;;3.97;2.03;;;;;16.20;101982.00;;;;10378349;28;20207;-76
2021/03/19 14:13:50;;;;;;;1.97;1.77;;;;;18.20;101991.00;;;;10413589;28;20569;-77
2021/03/19 14:18:51;;;;;;;2.20;1.60;;;;;19.90;102002.00;;;;10421758;28;20187;-76
2021/03/19 14:23:53;;;;;;;2.27;1.70;;;;;17.70;102013.00;;;;10383336;28;20255;-76
2021/03/19 14:28:54;;;;;;;3.53;1.73;;;;;19.20;101998.00;;;;10380420;28;20191;-76
2021/03/19 14:33:56;;;;;;;2.13;1.60;;;;;20.60;101993.00;;;;10420887;28;20217;-76
2021/03/19 14:38:58;;;;;;;4.23;2.50;;;;;20.00;101987.00;;;;10423441;28;20238;-76
2021/03/19 14:44:01;;;;;;;2.10;1.53;;;;;17.60;102011.00;;;;10402592;28;20191;-76
2021/03/19 14:49:23;;;;;;;1.60;1.50;;;;;16.00;101986.00;;;;10386358;28;20661;-76
2021/03/19 14:54:25;;;;;;;2.67;2.20;;;;;19.00;101995.00;;;;10421650;28;20589;-76
2021/03/19 14:59:26;;;;;;;2.97;1.70;;;;;16.40;102000.00;;;;10385684;28;20229;-76
2021/03/19 15:04:28;;;;;;;2.60;1.63;;;;;15.50;101989.00;;;;10398419;28;20194;-76
2021/03/19 15:09:29;;;;;;;2.77;1.50;;;;;18.80;101953.00;;;;10387865;28;20545;-76
2021/03/19 15:14:31;;;;;;;2.85;1.90;;;;;21.90;101976.00;;;;10420966;28;20576;-74
2021/03/19 15:19:32;;;;;;;3.80;2.03;;;;;19.20;101972.00;;;;10407615;28;20217;-75
2021/03/19 15:24:34;;;;;;;2.17;1.95;;;;;18.80;101993.00;;;;10383365;28;20191;-75
2021/03/19 15:29:36;;;;;;;2.47;1.88;;;;;17.80;102008.00;;;;10389340;28;20622;-74
2021/03/19 15:34:42;;;;;;;3.53;2.03;;;;;14.80;102010.00;;;;10415040;28;20202;-75
2021/03/19 15:39:43;;;;;;;3.37;2.07;;;;;14.90;101996.00;;;;10405273;28;20194;-74
2021/03/19 15:44:45;;;;;;;2.50;1.80;;;;;14.90;102002.00;;;;10401447;28;20207;-75
2021/03/19 15:49:46;;;;;;;1.93;1.77;;;;;13.30;102016.00;;;;10381641;28;20195;-75
2021/03/19 15:54:47;;;;;;;3.37;1.97;;;;;11.80;102011.00;;;;10393126;28;20237;-76
2021/03/19 15:59:49;;;;;;;3.30;1.50;;;;;11.00;102020.00;;;;10407087;28;20593;-76
2021/03/19 16:05:14;;;;;;;1.70;1.60;;;;;11.30;102017.00;;;;10384956;28;20191;-76
2021/03/19 16:10:21;;;;;;;1.83;1.60;;;;;11.20;102025.00;;;;10379508;28;20195;-76
2021/03/19 16:15:23;;;;;;;3.23;1.40;;;;;11.00;102014.00;;;;10374183;28;20314;-75
2021/03/19 16:20:28;;;;;;;1.90;1.63;;;;;10.80;102021.00;;;;10416701;28;20244;-75
2021/03/19 16:25:30;;;;;;;2.40;1.53;;;;;10.50;102026.00;;;;10390531;28;20188;-75
2021/03/19 16:30:35;;;;;;;2.60;1.50;;;;;10.00;102031.00;;;;10394250;28;20248;-75
2021/03/19 16:35:40;;;;;;;2.00;1.57;;;;;9.70;102041.00;;;;10435713;28;20195;-75
2021/03/19 16:40:44;;;;;;;3.83;1.80;;;;;9.50;102039.00;;;;10373957;28;20194;-76
2021/03/19 16:45:47;;;;;;;2.27;1.83;;;;;9.30;102044.00;;;;10386613;28;20240;-76
2021/03/19 16:50:50;;;;;;;2.47;2.27;;;;;9.10;102042.00;;;;10380131;28;20306;-75
2021/03/19 16:55:52;;;;;;;4.13;2.30;;;;;8.90;102041.00;;;;10368479;28;20354;-76
2021/03/19 17:00:58;;;;;;;3.30;2.00;;;;;8.90;102047.00;;;;10381377;28;20194;-76
2021/03/19 17:06:04;;;;;;;5.07;1.90;;;;;8.90;102051.00;;;;10373291;28;20197;-76
2021/03/19 17:11:06;;;;;;;2.83;1.80;;;;;8.70;102057.00;;;;10369615;28;20229;-76
2021/03/19 17:16:08;;;;;;;4.00;2.23;;;;;8.50;102060.00;;;;10381314;28;21074;-75
2021/03/19 17:21:10;;;;;;;3.37;1.80;;;;;8.40;102070.00;;;;10384158;28;20244;-75
2021/03/19 17:26:13;;;;;;;3.93;2.03;;;;;8.20;102072.00;;;;10386434;28;20191;-75
2021/03/19 17:31:16;;;;;;;4.13;1.83;;;;;8.10;102085.00;;;;10391876;28;20268;-76
2021/03/19 17:36:22;;;;;;;4.20;2.00;;;;;7.90;102073.00;;;;10379572;28;20257;-76
2021/03/19 17:41:23;;;;;;;2.50;1.87;;;;;7.80;102081.00;;;;10402607;28;20190;-76
2021/03/19 17:46:26;;;;;;;4.27;1.87;;;;;7.80;102091.00;;;;10383060;28;20240;-75
2021/03/19 17:51:28;;;;;;;5.67;2.17;;;;;7.70;102092.00;;;;10368856;28;20244;-76
2021/03/19 17:56:33;;;;;;;3.13;2.03;;;;;7.60;102100.00;;;;10419683;28;20730;-75
2021/03/19 18:01:36;;;;;;;3.17;2.10;;;;;7.60;102095.00;;;;10380155;28;20282;-76
2021/03/19 18:06:53;;;;;;;3.67;1.83;;;;;7.50;102101.00;;;;10381222;28;20197;-75
2021/03/19 18:11:54;;;;;;;3.33;1.77;;;;;7.30;102112.00;;;;10409155;28;20677;-75
2021/03/19 18:16:56;;;;;;;3.43;2.13;;;;;7.20;102112.00;;;;10406835;28;20209;-76
2021/03/19 18:21:58;;;;;;;4.23;1.80;;;;;7.20;102120.00;;;;10424057;28;20240;-75
2021/03/19 18:26:59;;;;;;;1.93;1.70;;;;;7.10;102116.00;;;;10411220;28;20195;-75
2021/03/19 18:32:04;;;;;;;4.93;1.83;;;;;7.10;102128.00;;;;10405798;28;20199;-76
2021/03/19 18:37:11;;;;;;;4.70;2.07;;;;;7.00;102128.00;;;;10431757;28;20199;-75
2021/03/19 18:42:15;;;;;;;2.43;2.00;;;;;6.90;102129.00;;;;10411613;28;20194;-75
2021/03/19 18:47:16;;;;;;;4.40;2.37;;;;;6.80;102140.00;;;;10383311;28;20721;-75
2021/03/19 18:52:18;;;;;;;3.27;2.50;;;;;6.70;102141.00;;;;10407983;28;20191;-75
2021/03/19 18:57:19;;;;;;;3.07;2.40;;;;;6.70;102145.00;;;;10413973;28;20201;-75
2021/03/19 19:02:21;;;;;;;9.37;4.27;;;;;6.60;102152.00;;;;10408413;28;20194;-75
2021/03/19 19:07:35;;;;;;;8.20;5.40;;;;;6.60;102163.00;;;;10382042;28;20674;-76
2021/03/19 19:12:38;;;;;;;10.73;5.67;;;;;6.50;102150.00;;;;10409028;28;20243;-76
2021/03/19 19:17:40;;;;;;;12.77;7.30;;;;;6.40;102161.00;;;;10379800;28;20827;-76
2021/03/19 19:22:42;;;;;;;5.90;3.90;;;;;6.40;102173.00;;;;10411944;28;20680;-75
2021/03/19 19:27:44;;;;;;;11.07;5.40;;;;;6.30;102170.00;;;;10406902;28;20215;-75
2021/03/19 19:32:45;;;;;;;5.03;3.40;;;;;6.20;102180.00;;;;10383681;28;20186;-75
2021/03/19 19:37:56;;;;;;;3.50;3.00;;;;;6.10;102181.00;;;;10398516;28;20272;-75
2021/03/19 19:42:58;;;;;;;7.30;3.93;;;;;6.20;102190.00;;;;10402657;28;20195;-75
2021/03/19 19:48:01;;;;;;;4.57;3.70;;;;;6.10;102198.00;;;;10413051;28;20269;-75
2021/03/19 19:53:03;;;;;;;5.80;3.23;;;;;6.00;102195.00;;;;10353342;28;20290;-75
2021/03/19 19:58:20;;;;;;;7.47;3.20;;;;;6.00;102202.00;;;;10399804;28;20215;-75
2021/03/19 20:03:32;;;;;;;4.20;3.00;;;;;5.90;102211.00;;;;10413796;28;20203;-75
2021/03/19 20:08:34;;;;;;;8.50;4.13;;;;;5.70;102217.00;;;;10351394;28;20214;-75
2021/03/19 20:13:36;;;;;;;7.70;3.87;;;;;5.60;102201.00;;;;10379259;28;20227;-75
2021/03/19 20:18:44;;;;;;;4.93;3.10;;;;;5.40;102197.00;;;;10377367;28;20690;-75
2021/03/19 20:23:46;;;;;;;3.43;2.80;;;;;5.30;102206.00;;;;10381516;28;20199;-75
2021/03/19 20:28:51;;;;;;;3.77;2.93;;;;;5.20;102202.00;;;;10413045;28;20198;-74
2021/03/19 20:33:52;;;;;;;4.27;2.67;;;;;5.10;102209.00;;;;10399899;28;20203;-75
2021/03/19 20:38:54;;;;;;;21.50;3.77;;;;;5.00;102210.00;;;;10389785;28;20210;-74
2021/03/19 20:43:55;;;;;;;4.13;2.77;;;;;4.90;102214.00;;;;10378794;28;20653;-74
2021/03/19 20:48:57;;;;;;;12.83;9.33;;;;;4.80;102221.00;;;;10395000;28;20191;-74
2021/03/19 20:54:01;;;;;;;7.27;6.07;;;;;4.70;102226.00;;;;10375187;28;20211;-74
2021/03/19 20:59:04;;;;;;;5.27;3.70;;;;;4.70;102224.00;;;;10368562;28;20207;-75
2021/03/19 21:04:08;;;;;;;7.23;3.60;;;;;4.60;102235.00;;;;10355707;28;20191;-75
2021/03/19 21:09:32;;;;;;;5.00;2.83;;;;;4.50;102235.00;;;;10376149;28;20245;-75
2021/03/19 21:14:36;;;;;;;5.10;3.67;;;;;4.50;102242.00;;;;10405719;28;20214;-75
2021/03/19 21:19:38;;;;;;;3.43;3.13;;;;;4.40;102245.00;;;;10394182;28;20283;-75
2021/03/19 21:24:40;;;;;;;6.23;3.90;;;;;4.40;102245.00;;;;10399816;28;20191;-75
2021/03/19 21:29:43;;;;;;;6.83;3.73;;;;;4.30;102247.00;;;;10345462;28;20202;-75
2021/03/19 21:34:45;;;;;;;4.80;3.60;;;;;4.20;102250.00;;;;10394558;28;20199;-75
2021/03/19 21:39:47;;;;;;;4.77;3.70;;;;;4.20;102263.00;;;;10374996;28;20758;-75
2021/03/19 21:44:48;;;;;;;6.47;3.50;;;;;4.10;102261.00;;;;10377913;28;20265;-75
2021/03/19 21:49:50;;;;;;;7.23;5.03;;;;;4.10;102276.00;;;;10383427;28;20253;-75
2021/03/19 21:54:51;;;;;;;7.10;5.17;;;;;3.90;102277.00;;;;10397880;28;20774;-75
2021/03/19 21:59:53;;;;;;;6.33;4.23;;;;;3.90;102270.00;;;;10394418;28;20210;-75
2021/03/19 22:04:54;;;;;;;5.97;3.37;;;;;3.90;102285.00;;;;10394459;28;20195;-75
2021/03/19 22:09:56;;;;;;;6.43;3.50;;;;;3.90;102296.00;;;;10375445;28;20203;-75
2021/03/19 22:14:57;;;;;;;7.30;3.20;;;;;3.80;102300.00;;;;10377903;28;20550;-75
2021/03/19 22:19:59;;;;;;;5.80;3.50;;;;;3.80;102308.00;;;;10387167;28;20616;-75
2021/03/19 22:25:04;;;;;;;7.97;4.30;;;;;3.70;102306.00;;;;10367824;28;20195;-75
2021/03/19 22:30:09;;;;;;;4.57;3.60;;;;;3.50;102307.00;;;;10393699;28;20211;-74
2021/03/19 22:35:13;;;;;;;6.73;4.37;;;;;3.30;102306.00;;;;10346521;28;20658;-74
2021/03/19 22:40:22;;;;;;;5.13;3.83;;;;;3.20;102311.00;;;;10397419;28;20222;-75
2021/03/19 22:45:24;;;;;;;18.40;12.57;;;;;3.30;102318.00;;;;10370092;28;20197;-75
2021/03/19 22:50:29;;;;;;;7.00;5.70;;;;;3.40;102319.00;;;;10353743;28;21886;-75
2021/03/19 22:55:31;;;;;;;8.60;5.47;;;;;3.30;102296.00;;;;10390251;28;21033;-75
2021/03/19 23:00:36;;;;;;;8.90;6.47;;;;;3.20;102305.00;;;;10369528;28;20195;-75
2021/03/19 23:05:39;;;;;;;5.80;4.90;;;;;3.20;102301.00;;;;10402374;28;20240;-75
2021/03/19 23:10:46;;;;;;;9.97;7.73;;;;;3.10;102302.00;;;;10369015;28;20191;-74
2021/03/19 23:15:49;;;;;;;11.23;5.87;;;;;3.00;102310.00;;;;10384555;28;20211;-75
2021/03/19 23:20:51;;;;;;;7.80;5.80;;;;;3.00;102300.00;;;;10400764;28;20650;-75
2021/03/19 23:25:53;;;;;;;6.03;4.73;;;;;3.00;102300.00;;;;10400382;28;20662;-75
2021/03/19 23:30:59;;;;;;;7.87;4.90;;;;;3.00;102300.00;;;;10384589;28;20194;-75
2021/03/19 23:36:03;;;;;;;7.37;4.77;;;;;2.90;102296.00;;;;10383665;28;20629;-75
2021/03/19 23:41:15;;;;;;;7.23;4.83;;;;;2.90;102299.00;;;;10400918;28;20186;-75
2021/03/19 23:46:37;;;;;;;7.40;4.97;;;;;3.10;102312.00;;;;10383722;28;20217;-75
2021/03/19 23:51:40;;;;;;;8.70;4.97;;;;;3.20;102302.00;;;;10398948;28;20195;-75
2021/03/19 23:56:42;;;;;;;7.67;4.93;;;;;3.30;102313.00;;;;10408217;28;20214;-75
